Time;durP1;ratioP1;P1;durP2;ratioP2;P2;SDS_P1;SDS_P2;PMS_P1;PMS_P2;Temp;Humidity;BMP_temperature;BMP_pressure;BME280_temperature;BME280_humidity;BME280_pressure;Samples;Min_cycle;Max_cycle;Signal;HPM_P1;HPM_P2
2023/01/31 00:00:50;;;;;;;;;;;;;;;15.71;69.10;100336.50;7407541;19;1638;-45
2023/01/31 00:03:19;;;;;;;;;;;;;;;15.69;69.27;100333.97;7406545;19;1639;-45
2023/01/31 00:05:47;;;;;;;;;;;;;;;15.69;69.54;100336.63;7406777;19;1830;-45
2023/01/31 00:08:15;;;;;;;;;;;;;;;15.67;69.55;100321.75;7405428;19;1799;-46
2023/01/31 00:10:45;;;;;;;;;;;;;;;15.66;69.15;100322.72;7406204;19;1950;-45
2023/01/31 00:13:16;;;;;;;;;;;;;;;15.63;69.22;100337.13;7407450;19;1693;-45
2023/01/31 00:15:44;;;;;;;;;;;;;;;15.63;69.60;100350.44;7406657;19;1808;-45
2023/01/31 00:18:12;;;;;;;;;;;;;;;15.61;69.38;100330.22;7405730;19;1940;-45
2023/01/31 00:20:40;;;;;;;;;;;;;;;15.59;69.67;100338.34;7406826;19;1547;-45
2023/01/31 00:23:09;;;;;;;;;;;;;;;15.60;69.62;100324.06;7406673;19;1626;-45
2023/01/31 00:25:37;;;;;;;;;;;;;;;15.57;69.64;100315.47;7404855;19;1734;-45
2023/01/31 00:28:05;;;;;;;;;;;;;;;15.58;69.14;100325.13;7406477;19;1790;-45
2023/01/31 00:30:36;;;;;;;;;;;;;;;15.57;69.38;100323.47;7404821;19;1523;-45
2023/01/31 00:33:04;;;;;;;;;;;;;;;15.59;69.32;100325.03;7405762;19;1608;-45
2023/01/31 00:35:33;;;;;;;;;;;;;;;15.57;69.35;100318.97;7406529;19;1790;-45
2023/01/31 00:38:02;;;;;;;;;;;;;;;15.55;69.21;100325.41;7406146;19;1855;-45
2023/01/31 00:40:30;;;;;;;;;;;;;;;15.55;69.20;100312.06;7405690;19;1913;-45
2023/01/31 00:42:58;;;;;;;;;;;;;;;15.52;69.22;100311.34;7405495;19;1807;-45
2023/01/31 00:45:27;;;;;;;;;;;;;;;15.54;69.06;100308.56;7405822;19;1593;-45
2023/01/31 00:47:58;;;;;;;;;;;;;;;15.48;69.32;100299.25;7406139;19;1746;-45
2023/01/31 00:50:27;;;;;;;;;;;;;;;15.51;69.57;100314.97;7403356;19;1799;-45
2023/01/31 00:52:55;;;;;;;;;;;;;;;15.47;69.14;100313.53;7405829;19;1433;-45
2023/01/31 00:55:24;;;;;;;;;;;;;;;15.45;69.19;100320.81;7404405;19;2001;-45
2023/01/31 00:57:52;;;;;;;;;;;;;;;15.46;69.32;100322.50;7404845;19;1850;-45
2023/01/31 01:00:20;;;;;;;;;;;;;;;15.44;69.07;100313.78;7404657;19;1731;-45
2023/01/31 01:02:50;;;;;;;;;;;;;;;15.46;69.45;100313.69;7404699;19;1348;-45
2023/01/31 01:05:21;;;;;;;;;;;;;;;15.45;69.01;100325.28;7404814;19;2077;-45
2023/01/31 01:07:50;;;;;;;;;;;;;;;15.43;69.35;100304.09;7403547;19;1843;-45
2023/01/31 01:10:21;;;;;;;;;;;;;;;15.45;69.45;100323.47;7405362;19;1642;-45
2023/01/31 01:12:50;;;;;;;;;;;;;;;15.45;68.92;100320.81;7405774;19;1637;-45
2023/01/31 01:15:19;;;;;;;;;;;;;;;15.42;69.35;100297.09;7405019;19;2025;-45
2023/01/31 01:17:47;;;;;;;;;;;;;;;15.42;69.31;100299.75;7404764;19;1651;-45
2023/01/31 01:20:15;;;;;;;;;;;;;;;15.39;69.39;100301.81;7402453;19;2124;-45
2023/01/31 01:22:46;;;;;;;;;;;;;;;15.37;69.19;100307.25;7405260;19;1019;-45
2023/01/31 01:25:15;;;;;;;;;;;;;;;15.37;69.56;100301.91;7404325;19;1695;-45
2023/01/31 01:27:43;;;;;;;;;;;;;;;15.34;69.13;100291.53;7403763;19;1756;-45
2023/01/31 01:30:12;;;;;;;;;;;;;;;15.34;69.53;100290.66;7404080;19;1691;-45
2023/01/31 01:32:41;;;;;;;;;;;;;;;15.31;69.26;100294.41;7401889;19;1877;-45
2023/01/31 01:35:09;;;;;;;;;;;;;;;15.35;69.08;100295.03;7402851;19;1737;-45
2023/01/31 01:37:39;;;;;;;;;;;;;;;15.35;69.35;100311.00;7403097;19;1842;-45
2023/01/31 01:40:10;;;;;;;;;;;;;;;15.33;69.29;100305.81;7400923;19;1925;-45
2023/01/31 01:42:40;;;;;;;;;;;;;;;15.35;69.19;100309.19;7403620;19;1628;-45
2023/01/31 01:45:15;;;;;;;;;;;;;;;15.32;69.21;100290.81;7404893;19;1556;-45
2023/01/31 01:47:49;;;;;;;;;;;;;;;15.33;69.25;100313.78;7404151;19;1554;-45
2023/01/31 01:50:20;;;;;;;;;;;;;;;15.27;69.29;100307.13;7403575;19;1956;-45
2023/01/31 01:52:51;;;;;;;;;;;;;;;15.27;69.04;100319.63;7403636;19;1599;-45
2023/01/31 01:55:25;;;;;;;;;;;;;;;15.28;69.00;100305.34;7402555;19;1858;-45
2023/01/31 01:57:56;;;;;;;;;;;;;;;15.25;69.15;100317.06;7403390;19;1814;-45
2023/01/31 02:00:25;;;;;;;;;;;;;;;15.25;69.51;100297.59;7401483;19;1836;-45
2023/01/31 02:02:56;;;;;;;;;;;;;;;15.31;69.24;100292.59;7401804;19;1999;-45
2023/01/31 02:05:27;;;;;;;;;;;;;;;15.48;68.72;100330.38;7403071;19;2195;-45
2023/01/31 02:07:56;;;;;;;;;;;;;;;16.13;66.14;100323.31;7401883;19;2029;-45
2023/01/31 02:10:30;;;;;;;;;;;;;;;16.93;63.94;100303.25;7403219;19;1685;-45
2023/01/31 02:13:01;;;;;;;;;;;;;;;17.52;62.22;100301.63;7403220;19;1774;-45
2023/01/31 02:15:30;;;;;;;;;;;;;;;18.13;60.57;100308.63;7402956;19;1629;-45
2023/01/31 02:17:58;;;;;;;;;;;;;;;18.50;59.82;100313.22;7402288;19;2077;-45
2023/01/31 02:20:45;;;;;;;;;;;;;;;18.55;59.65;100334.25;7400827;19;1850;-45
2023/01/31 02:23:24;;;;;;;;;;;;;;;18.63;58.92;100331.69;7402565;19;1787;-45
2023/01/31 02:26:10;;;;;;;;;;;;;;;18.37;60.03;100316.22;7400092;19;2072;-45
2023/01/31 02:28:56;;;;;;;;;;;;;;;18.05;60.84;100346.78;7402612;19;1860;-45
2023/01/31 02:31:39;;;;;;;;;;;;;;;17.83;61.66;100347.88;7402407;19;1887;-45
2023/01/31 02:34:14;;;;;;;;;;;;;;;17.81;61.51;100344.47;7400333;19;2189;-45
2023/01/31 02:36:46;;;;;;;;;;;;;;;17.72;61.58;100337.25;7402269;19;1451;-45
2023/01/31 02:39:18;;;;;;;;;;;;;;;17.76;61.56;100345.84;7401605;19;1955;-45
2023/01/31 02:41:52;;;;;;;;;;;;;;;17.72;61.43;100347.97;7400587;19;1778;-45
2023/01/31 02:47:07;;;;;;;;;;;;;;;17.93;61.48;100344.38;7400302;19;736;-45
2023/01/31 02:49:41;;;;;;;;;;;;;;;18.32;60.47;100353.25;7400639;19;1619;-45
2023/01/31 02:52:18;;;;;;;;;;;;;;;19.24;58.04;100325.06;7401099;19;1037;-45
2023/01/31 02:57:41;;;;;;;;;;;;;;;19.73;56.82;100349.78;7401042;19;1834;-45
2023/01/31 03:00:11;;;;;;;;;;;;;;;19.85;56.53;100367.38;7399673;19;1859;-45
2023/01/31 03:02:39;;;;;;;;;;;;;;;19.79;56.47;100367.97;7399574;19;1541;-45
2023/01/31 03:05:13;;;;;;;;;;;;;;;19.80;56.70;100375.03;7400958;19;1649;-45
2023/01/31 03:07:42;;;;;;;;;;;;;;;19.70;56.95;100350.09;7399582;19;1956;-45
2023/01/31 03:10:29;;;;;;;;;;;;;;;19.83;56.70;100363.16;7398984;19;1595;-45
2023/01/31 03:13:10;;;;;;;;;;;;;;;19.89;56.72;100362.53;7400669;19;1108;-45
2023/01/31 03:18:34;;;;;;;;;;;;;;;19.92;56.43;100373.00;7409344;19;2056;-45
2023/01/31 03:21:10;;;;;;;;;;;;;;;19.27;58.10;100363.13;7407757;19;1652;-45
2023/01/31 03:23:40;;;;;;;;;;;;;;;18.24;60.08;100364.69;7408241;19;1683;-45
2023/01/31 03:26:09;;;;;;;;;;;;;;;17.76;61.75;100386.81;7405507;19;988;-45
2023/01/31 03:28:40;;;;;;;;;;;;;;;18.02;61.55;100372.97;7409552;19;1421;-45
2023/01/31 03:31:12;;;;;;;;;;;;;;;18.82;59.97;100369.19;7408877;19;1992;-45
2023/01/31 03:33:42;;;;;;;;;;;;;;;19.75;57.20;100355.84;7406926;19;1499;-45
2023/01/31 03:36:19;;;;;;;;;;;;;;;20.02;56.77;100362.19;7407142;19;1835;-45
2023/01/31 03:38:51;;;;;;;;;;;;;;;19.99;56.78;100362.50;7408528;19;1850;-45
2023/01/31 03:41:24;;;;;;;;;;;;;;;19.86;57.24;100369.06;7405779;19;1913;-45
2023/01/31 03:43:58;;;;;;;;;;;;;;;19.90;56.90;100379.50;7408193;19;2082;-45
2023/01/31 03:46:29;;;;;;;;;;;;;;;19.85;57.33;100378.09;7407594;19;1149;-45
2023/01/31 03:49:01;;;;;;;;;;;;;;;19.78;57.35;100371.66;7408265;19;1705;-45
2023/01/31 03:51:35;;;;;;;;;;;;;;;19.86;56.97;100379.81;7407407;19;1752;-45
2023/01/31 03:54:13;;;;;;;;;;;;;;;19.85;57.36;100367.38;7407265;19;1810;-45
2023/01/31 03:56:43;;;;;;;;;;;;;;;19.86;56.98;100390.53;7404445;19;1718;-45
2023/01/31 03:59:13;;;;;;;;;;;;;;;19.88;56.87;100397.59;7406745;19;1853;-45
2023/01/31 04:01:43;;;;;;;;;;;;;;;19.03;59.24;100402.97;7407458;19;1679;-45
2023/01/31 04:04:16;;;;;;;;;;;;;;;18.21;61.34;100413.13;7407065;19;1869;-45
2023/01/31 04:06:47;;;;;;;;;;;;;;;17.73;62.31;100429.88;7407676;19;1117;-45
2023/01/31 04:09:15;;;;;;;;;;;;;;;18.11;61.98;100417.63;7407123;19;1787;-45
2023/01/31 04:11:44;;;;;;;;;;;;;;;18.34;60.87;100414.69;7406273;19;2047;-45
2023/01/31 04:14:12;;;;;;;;;;;;;;;18.82;59.93;100406.69;7406903;19;2046;-45
2023/01/31 04:16:40;;;;;;;;;;;;;;;18.98;59.39;100416.81;7405610;19;1807;-45
2023/01/31 04:19:10;;;;;;;;;;;;;;;18.94;59.17;100423.47;7403858;19;1846;-45
2023/01/31 04:21:39;;;;;;;;;;;;;;;18.83;59.55;100399.50;7407633;19;1630;-45
2023/01/31 04:24:11;;;;;;;;;;;;;;;18.80;59.47;100415.84;7403710;19;2080;-45
2023/01/31 04:26:40;;;;;;;;;;;;;;;18.79;59.33;100415.00;7405283;19;1674;-45
2023/01/31 04:29:08;;;;;;;;;;;;;;;18.65;59.80;100410.88;7404725;19;1536;-45
2023/01/31 04:31:38;;;;;;;;;;;;;;;18.78;59.79;100412.44;7406279;19;1305;-45
2023/01/31 04:34:07;;;;;;;;;;;;;;;18.73;59.53;100412.88;7405734;19;1937;-45
2023/01/31 04:36:36;;;;;;;;;;;;;;;18.66;59.76;100417.94;7405337;19;1818;-45
2023/01/31 04:39:04;;;;;;;;;;;;;;;18.67;59.64;100418.78;7405004;19;1865;-45
2023/01/31 04:41:35;;;;;;;;;;;;;;;18.67;59.50;100430.34;7403767;19;1788;-45
2023/01/31 04:44:03;;;;;;;;;;;;;;;18.66;59.33;100422.44;7403855;19;1952;-45
2023/01/31 04:46:31;;;;;;;;;;;;;;;18.78;59.46;100431.19;7403694;19;2114;-45
2023/01/31 04:49:02;;;;;;;;;;;;;;;18.96;58.97;100434.88;7403130;19;1696;-45
2023/01/31 04:51:30;;;;;;;;;;;;;;;18.91;58.71;100430.94;7404905;19;2029;-45
2023/01/31 04:53:58;;;;;;;;;;;;;;;18.96;58.94;100436.69;7402547;19;2317;-45
2023/01/31 04:56:27;;;;;;;;;;;;;;;19.02;58.92;100442.34;7404158;19;1890;-45
2023/01/31 04:58:59;;;;;;;;;;;;;;;18.95;58.90;100433.16;7404410;19;1725;-45
2023/01/31 05:01:28;;;;;;;;;;;;;;;18.89;59.09;100444.47;7402613;19;1854;-45
2023/01/31 05:03:57;;;;;;;;;;;;;;;18.80;59.33;100439.94;7405264;19;1846;-45
2023/01/31 05:06:26;;;;;;;;;;;;;;;18.65;59.73;100448.38;7404980;19;1825;-45
2023/01/31 05:08:54;;;;;;;;;;;;;;;18.56;59.58;100433.19;7403758;19;1793;-45
2023/01/31 05:11:23;;;;;;;;;;;;;;;18.55;59.89;100438.66;7404802;19;1549;-45
2023/01/31 05:13:52;;;;;;;;;;;;;;;18.54;60.10;100436.97;7403636;19;1801;-45
2023/01/31 05:16:23;;;;;;;;;;;;;;;18.54;60.53;100416.38;7404204;19;1795;-45
2023/01/31 05:18:52;;;;;;;;;;;;;;;18.54;60.32;100439.66;7403380;19;1798;-45
2023/01/31 05:21:20;;;;;;;;;;;;;;;18.45;59.96;100436.00;7403122;19;1858;-45
2023/01/31 05:23:49;;;;;;;;;;;;;;;18.42;61.19;100428.22;7404656;19;1684;-45
2023/01/31 05:26:18;;;;;;;;;;;;;;;18.48;62.15;100427.66;7400974;19;1799;-45
2023/01/31 05:28:46;;;;;;;;;;;;;;;18.54;62.21;100431.59;7404459;19;1537;-45
2023/01/31 05:31:15;;;;;;;;;;;;;;;18.63;62.85;100453.03;7403905;19;1594;-45
2023/01/31 05:33:47;;;;;;;;;;;;;;;18.65;62.98;100429.63;7403410;19;2507;-45
2023/01/31 05:36:17;;;;;;;;;;;;;;;18.50;62.78;100460.50;7402094;19;1041;-46
2023/01/31 05:38:47;;;;;;;;;;;;;;;18.48;62.97;100451.75;7403935;19;1990;-44
2023/01/31 05:41:15;;;;;;;;;;;;;;;18.48;62.71;100466.00;7402162;19;1898;-45
2023/01/31 05:43:45;;;;;;;;;;;;;;;18.47;62.12;100455.44;7403161;19;1999;-46
2023/01/31 05:46:15;;;;;;;;;;;;;;;18.40;61.94;100448.94;7400863;19;1771;-45
2023/01/31 05:48:46;;;;;;;;;;;;;;;18.40;61.38;100454.28;7402884;19;1463;-45
2023/01/31 05:51:16;;;;;;;;;;;;;;;18.68;60.57;100480.25;7403885;19;1437;-45
2023/01/31 05:53:44;;;;;;;;;;;;;;;18.92;60.34;100473.66;7399757;19;1898;-44
2023/01/31 05:56:12;;;;;;;;;;;;;;;19.19;59.49;100486.31;7398843;19;1128;-45
2023/01/31 05:58:41;;;;;;;;;;;;;;;19.18;59.90;100470.38;7403835;19;1989;-45
2023/01/31 06:01:15;;;;;;;;;;;;;;;19.07;59.86;100501.69;7398360;19;1844;-45
2023/01/31 06:03:47;;;;;;;;;;;;;;;18.84;60.38;100503.84;7403746;19;1654;-45
2023/01/31 06:06:15;;;;;;;;;;;;;;;18.81;60.45;100505.94;7403511;19;1136;-45
2023/01/31 06:08:44;;;;;;;;;;;;;;;18.75;60.43;100506.47;7403069;19;2011;-45
2023/01/31 06:11:13;;;;;;;;;;;;;;;18.74;60.74;100502.97;7401936;19;1714;-45
2023/01/31 06:13:45;;;;;;;;;;;;;;;18.69;60.48;100497.16;7404339;19;1131;-45
2023/01/31 06:16:14;;;;;;;;;;;;;;;18.75;60.90;100501.13;7399230;19;1565;-45
2023/01/31 06:18:43;;;;;;;;;;;;;;;18.72;60.57;100498.72;7403103;19;1758;-45
2023/01/31 06:21:15;;;;;;;;;;;;;;;18.72;60.83;100515.66;7402153;19;1872;-45
2023/01/31 06:23:46;;;;;;;;;;;;;;;18.68;60.74;100509.72;7403658;19;1365;-45
2023/01/31 06:26:15;;;;;;;;;;;;;;;18.73;60.83;100503.09;7399898;19;2069;-45
2023/01/31 06:28:44;;;;;;;;;;;;;;;18.83;60.57;100512.84;7399764;19;961;-45
2023/01/31 06:31:13;;;;;;;;;;;;;;;18.71;60.54;100503.22;7402877;19;1794;-45
2023/01/31 06:33:41;;;;;;;;;;;;;;;18.17;61.83;100501.88;7401728;19;1683;-45
2023/01/31 06:36:10;;;;;;;;;;;;;;;17.74;63.43;100514.47;7402867;19;1466;-45
2023/01/31 06:38:41;;;;;;;;;;;;;;;17.32;64.23;100506.50;7403147;19;1785;-45
2023/01/31 06:41:10;;;;;;;;;;;;;;;17.30;64.88;100503.13;7400603;19;2085;-45
2023/01/31 06:43:38;;;;;;;;;;;;;;;18.22;62.10;100511.19;7399688;19;1113;-44
2023/01/31 06:46:07;;;;;;;;;;;;;;;18.79;60.80;100513.25;7402729;19;1665;-45
2023/01/31 06:48:35;;;;;;;;;;;;;;;19.01;60.01;100513.00;7401937;19;1939;-44
2023/01/31 06:51:04;;;;;;;;;;;;;;;18.55;61.41;100529.72;7399887;19;1552;-45
2023/01/31 06:53:33;;;;;;;;;;;;;;;17.97;62.89;100533.06;7398241;19;2027;-45
2023/01/31 06:56:04;;;;;;;;;;;;;;;18.27;62.18;100525.00;7396578;19;1054;-45
2023/01/31 06:58:32;;;;;;;;;;;;;;;18.72;61.38;100525.50;7401222;19;2073;-44
2023/01/31 07:01:06;;;;;;;;;;;;;;;19.04;59.84;100525.28;7399484;19;1863;-45
2023/01/31 07:03:34;;;;;;;;;;;;;;;19.23;59.63;100521.72;7401154;19;1199;-45
2023/01/31 07:06:03;;;;;;;;;;;;;;;19.04;59.58;100528.81;7399905;19;1951;-45
2023/01/31 07:08:34;;;;;;;;;;;;;;;18.79;60.84;100532.00;7399738;19;1875;-45
2023/01/31 07:11:07;;;;;;;;;;;;;;;18.53;60.09;100523.66;7401996;19;1037;-45
2023/01/31 07:13:36;;;;;;;;;;;;;;;18.71;59.82;100515.78;7400877;19;1667;-45
2023/01/31 07:16:04;;;;;;;;;;;;;;;18.78;60.05;100508.88;7399891;19;2072;-45
2023/01/31 07:18:33;;;;;;;;;;;;;;;18.83;59.67;100536.97;7400848;19;1943;-45
2023/01/31 07:21:01;;;;;;;;;;;;;;;18.86;59.60;100538.50;7400499;19;1855;-45
2023/01/31 07:23:30;;;;;;;;;;;;;;;18.90;59.75;100547.13;7397245;19;1501;-45
2023/01/31 07:26:01;;;;;;;;;;;;;;;18.92;59.84;100542.47;7399181;19;1569;-45
2023/01/31 07:28:32;;;;;;;;;;;;;;;18.84;60.20;100560.09;7401554;19;2063;-45
2023/01/31 07:31:06;;;;;;;;;;;;;;;18.92;60.22;100564.78;7399712;19;1513;-45
2023/01/31 07:33:36;;;;;;;;;;;;;;;18.78;60.61;100566.00;7400408;19;1383;-45
2023/01/31 07:36:04;;;;;;;;;;;;;;;18.95;60.08;100564.47;7398731;19;1658;-45
2023/01/31 07:38:33;;;;;;;;;;;;;;;18.91;60.29;100549.66;7400740;19;1790;-45
2023/01/31 07:41:03;;;;;;;;;;;;;;;18.98;60.02;100555.28;7398712;19;1861;-45
2023/01/31 07:43:36;;;;;;;;;;;;;;;18.97;60.16;100559.81;7399889;19;1691;-45
2023/01/31 07:46:07;;;;;;;;;;;;;;;19.02;60.19;100546.84;7400274;19;1783;-45
2023/01/31 07:48:36;;;;;;;;;;;;;;;19.00;60.26;100559.56;7401373;19;1892;-45
2023/01/31 07:51:04;;;;;;;;;;;;;;;18.95;60.17;100559.13;7400690;19;1828;-45
2023/01/31 07:53:34;;;;;;;;;;;;;;;19.02;60.26;100575.47;7397929;19;1799;-45
2023/01/31 07:56:15;;;;;;;;;;;;;;;19.02;60.31;100581.69;7397664;19;1693;-45
2023/01/31 07:58:48;;;;;;;;;;;;;;;19.09;59.82;100592.69;7400248;19;1594;-45
2023/01/31 08:03:59;;;;;;;;;;;;;;;19.02;60.21;100573.66;7407073;19;1933;-45
2023/01/31 08:06:31;;;;;;;;;;;;;;;18.99;60.01;100584.63;7406084;19;1439;-44
2023/01/31 08:08:59;;;;;;;;;;;;;;;19.05;59.95;100593.97;7407512;19;1777;-45
2023/01/31 08:11:29;;;;;;;;;;;;;;;19.06;60.09;100583.09;7406595;19;1677;-45
2023/01/31 08:14:00;;;;;;;;;;;;;;;19.04;60.66;100581.56;7406088;19;1826;-45
2023/01/31 08:16:30;;;;;;;;;;;;;;;19.16;60.65;100583.13;7406944;19;1573;-45
2023/01/31 08:19:01;;;;;;;;;;;;;;;19.06;61.46;100568.88;7404247;19;2132;-45
2023/01/31 08:21:30;;;;;;;;;;;;;;;19.07;61.39;100587.47;7405531;19;1856;-45
2023/01/31 08:23:58;;;;;;;;;;;;;;;19.04;61.79;100593.13;7406421;19;1822;-45
2023/01/31 08:26:27;;;;;;;;;;;;;;;18.84;63.10;100578.84;7403349;19;2017;-45
2023/01/31 08:28:58;;;;;;;;;;;;;;;18.78;63.52;100594.59;7405149;19;1806;-45
2023/01/31 08:31:29;;;;;;;;;;;;;;;18.71;63.50;100580.06;7405394;19;1953;-45
2023/01/31 08:33:59;;;;;;;;;;;;;;;18.69;63.77;100583.72;7405887;19;2067;-45
2023/01/31 08:36:28;;;;;;;;;;;;;;;18.59;63.73;100577.50;7405706;19;1567;-45
2023/01/31 08:38:57;;;;;;;;;;;;;;;18.68;63.56;100574.00;7401936;19;1864;-45
2023/01/31 08:41:28;;;;;;;;;;;;;;;18.66;63.30;100594.72;7404898;19;1853;-46
2023/01/31 08:43:58;;;;;;;;;;;;;;;18.60;63.59;100597.09;7404073;19;1776;-44
2023/01/31 08:46:31;;;;;;;;;;;;;;;18.58;63.80;100613.31;7403267;19;1729;-45
2023/01/31 08:49:01;;;;;;;;;;;;;;;18.55;63.75;100592.16;7403069;19;2015;-45
2023/01/31 08:51:29;;;;;;;;;;;;;;;18.59;63.55;100596.25;7402447;19;962;-44
2023/01/31 08:53:59;;;;;;;;;;;;;;;18.57;63.52;100606.25;7404038;19;2064;-45
2023/01/31 08:56:27;;;;;;;;;;;;;;;18.67;63.54;100617.81;7401647;19;2003;-44
2023/01/31 08:58:56;;;;;;;;;;;;;;;18.58;63.55;100607.09;7402963;19;1854;-44
2023/01/31 09:01:24;;;;;;;;;;;;;;;18.63;63.11;100604.84;7401198;19;1848;-44
2023/01/31 09:03:56;;;;;;;;;;;;;;;18.66;63.36;100626.88;7404144;19;1757;-45
2023/01/31 09:06:26;;;;;;;;;;;;;;;18.65;63.03;100601.06;7405577;19;1851;-44
2023/01/31 09:08:56;;;;;;;;;;;;;;;18.71;62.53;100607.69;7405475;19;2025;-44
2023/01/31 09:11:28;;;;;;;;;;;;;;;18.67;63.22;100628.53;7402374;19;1598;-44
2023/01/31 09:13:57;;;;;;;;;;;;;;;18.65;62.62;100609.09;7406002;19;1552;-45
2023/01/31 09:16:25;;;;;;;;;;;;;;;18.62;62.96;100608.50;7404814;19;1637;-44
2023/01/31 09:18:56;;;;;;;;;;;;;;;18.55;63.21;100621.59;7401780;19;1739;-44
2023/01/31 09:21:25;;;;;;;;;;;;;;;18.58;62.68;100612.44;7402491;19;1857;-45
2023/01/31 09:23:56;;;;;;;;;;;;;;;18.56;62.91;100615.28;7403813;19;1826;-45
2023/01/31 09:26:25;;;;;;;;;;;;;;;18.56;63.01;100604.56;7403281;19;1749;-45
2023/01/31 09:28:53;;;;;;;;;;;;;;;18.62;62.28;100630.81;7405506;19;1643;-45
2023/01/31 09:31:22;;;;;;;;;;;;;;;18.60;62.65;100623.88;7404283;19;1775;-44
2023/01/31 09:33:50;;;;;;;;;;;;;;;18.57;62.53;100622.31;7404557;19;1693;-45
2023/01/31 09:36:23;;;;;;;;;;;;;;;18.59;62.74;100611.47;7402360;19;1136;-44
2023/01/31 09:38:55;;;;;;;;;;;;;;;18.60;62.54;100611.34;7404625;19;1844;-44
2023/01/31 09:41:26;;;;;;;;;;;;;;;18.63;61.90;100621.78;7401541;19;2082;-45
2023/01/31 09:43:56;;;;;;;;;;;;;;;18.60;62.47;100622.06;7400789;19;1638;-44
2023/01/31 09:46:31;;;;;;;;;;;;;;;18.58;62.47;100618.66;7401765;19;1061;-44
2023/01/31 09:49:04;;;;;;;;;;;;;;;18.61;62.14;100607.66;7403692;19;1575;-44
2023/01/31 09:51:36;;;;;;;;;;;;;;;18.59;62.24;100614.16;7400292;19;965;-44
2023/01/31 09:54:06;;;;;;;;;;;;;;;18.56;62.41;100625.13;7402817;19;1038;-44
2023/01/31 09:56:41;;;;;;;;;;;;;;;18.62;62.03;100620.09;7401044;19;1883;-44
2023/01/31 09:59:17;;;;;;;;;;;;;;;18.56;61.91;100622.44;7403876;19;1104;-44
2023/01/31 10:01:49;;;;;;;;;;;;;;;18.64;61.87;100627.97;7403584;19;1858;-45
2023/01/31 10:04:26;;;;;;;;;;;;;;;18.71;61.75;100630.97;7402670;19;2043;-44
2023/01/31 10:07:00;;;;;;;;;;;;;;;18.62;61.55;100612.06;7402560;19;1679;-44
2023/01/31 10:09:33;;;;;;;;;;;;;;;18.67;61.90;100635.75;7400769;19;956;-44
2023/01/31 10:12:03;;;;;;;;;;;;;;;18.64;61.73;100612.75;7404169;19;1448;-44
2023/01/31 10:14:34;;;;;;;;;;;;;;;18.64;61.74;100601.19;7402745;19;1642;-45
2023/01/31 10:17:07;;;;;;;;;;;;;;;18.64;61.40;100618.13;7403295;19;2082;-44
2023/01/31 10:19:41;;;;;;;;;;;;;;;18.72;61.61;100624.59;7401534;19;1654;-45
2023/01/31 10:22:17;;;;;;;;;;;;;;;18.63;61.58;100615.56;7397015;19;1849;-45
2023/01/31 10:24:49;;;;;;;;;;;;;;;18.57;61.78;100606.25;7401840;19;2030;-45
2023/01/31 10:27:26;;;;;;;;;;;;;;;18.61;61.88;100599.63;7401947;19;1764;-44
2023/01/31 10:29:58;;;;;;;;;;;;;;;18.62;61.55;100603.16;7400170;19;2085;-45
2023/01/31 10:32:30;;;;;;;;;;;;;;;18.59;61.57;100600.75;7399233;19;1799;-44
2023/01/31 10:35:02;;;;;;;;;;;;;;;18.63;61.52;100594.16;7401983;19;1764;-44
2023/01/31 10:37:39;;;;;;;;;;;;;;;18.68;61.50;100576.69;7402631;19;1899;-44
2023/01/31 10:40:14;;;;;;;;;;;;;;;18.65;61.01;100581.47;7400606;19;1950;-34
2023/01/31 10:42:44;;;;;;;;;;;;;;;18.59;61.32;100588.22;7401362;19;1877;-34
2023/01/31 10:45:18;;;;;;;;;;;;;;;18.66;61.60;100578.66;7401543;19;1711;-34
2023/01/31 10:47:50;;;;;;;;;;;;;;;18.64;61.57;100579.75;7402128;19;1796;-34
2023/01/31 10:50:19;;;;;;;;;;;;;;;18.71;61.66;100585.44;7401506;19;1486;-34
2023/01/31 10:53:00;;;;;;;;;;;;;;;18.80;61.33;100568.53;7401604;19;1857;-34
2023/01/31 10:55:42;;;;;;;;;;;;;;;18.85;61.29;100577.84;7402142;19;1472;-34
2023/01/31 10:58:15;;;;;;;;;;;;;;;18.86;61.05;100578.69;7402182;19;1816;-33
2023/01/31 11:00:46;;;;;;;;;;;;;;;18.91;60.91;100575.63;7401792;19;1391;-34
2023/01/31 11:03:16;;;;;;;;;;;;;;;18.94;60.58;100567.28;7399640;19;1860;-34
2023/01/31 11:05:49;;;;;;;;;;;;;;;18.86;60.55;100590.28;7401900;19;1726;-34
2023/01/31 11:08:35;;;;;;;;;;;;;;;18.88;60.67;100569.56;7399860;19;1803;-34
2023/01/31 11:11:07;;;;;;;;;;;;;;;18.91;60.61;100557.69;7400231;19;1772;-34
2023/01/31 11:13:36;;;;;;;;;;;;;;;18.88;60.54;100576.75;7396601;19;1619;-34
2023/01/31 11:16:08;;;;;;;;;;;;;;;19.00;59.99;100567.59;7398876;19;1790;-33
2023/01/31 11:18:38;;;;;;;;;;;;;;;19.16;59.81;100574.19;7397722;19;1222;-34
2023/01/31 11:21:08;;;;;;;;;;;;;;;19.14;59.83;100569.00;7401407;19;1053;-34
2023/01/31 11:23:41;;;;;;;;;;;;;;;19.17;59.73;100575.91;7395797;19;1849;-34
2023/01/31 11:26:11;;;;;;;;;;;;;;;19.13;59.88;100564.63;7399887;19;2069;-34
2023/01/31 11:28:42;;;;;;;;;;;;;;;19.17;59.52;100568.72;7401030;19;1535;-34
2023/01/31 11:31:19;;;;;;;;;;;;;;;19.17;59.52;100565.19;7400110;19;1041;-35
2023/01/31 11:33:56;;;;;;;;;;;;;;;19.01;59.86;100566.59;7401709;19;1036;-34
2023/01/31 11:36:25;;;;;;;;;;;;;;;18.93;60.51;100566.44;7408965;19;1349;-34
2023/01/31 11:38:58;;;;;;;;;;;;;;;18.90;60.80;100558.69;7408839;19;1701;-33
2023/01/31 11:41:31;;;;;;;;;;;;;;;18.93;60.83;100561.09;7406486;19;1866;-34
2023/01/31 11:44:23;;;;;;;;;;;;;;;18.96;60.97;100566.19;7408747;19;1196;-34
2023/01/31 11:46:54;;;;;;;;;;;;;;;18.95;61.40;100561.78;7405133;19;2125;-34
2023/01/31 11:49:28;;;;;;;;;;;;;;;18.93;61.27;100547.69;7408643;19;1908;-34
2023/01/31 11:52:00;;;;;;;;;;;;;;;18.99;61.14;100552.47;7407798;19;1693;-34
2023/01/31 11:54:32;;;;;;;;;;;;;;;19.00;61.13;100546.16;7407610;19;1725;-34
2023/01/31 11:57:03;;;;;;;;;;;;;;;19.00;60.57;100559.56;7405276;19;1371;-34
2023/01/31 11:59:33;;;;;;;;;;;;;;;19.00;60.88;100559.56;7405974;19;2129;-34
2023/01/31 12:02:02;;;;;;;;;;;;;;;19.01;61.35;100553.19;7406039;19;1869;-34
2023/01/31 12:04:35;;;;;;;;;;;;;;;19.00;61.73;100559.56;7399561;19;2732;-33
2023/01/31 12:07:06;;;;;;;;;;;;;;;18.94;61.64;100561.94;7405569;19;1766;-34
2023/01/31 12:09:45;;;;;;;;;;;;;;;18.92;61.74;100556.72;7405657;19;1812;-34
2023/01/31 12:12:26;;;;;;;;;;;;;;;18.95;61.95;100553.75;7404072;19;1520;-34
2023/01/31 12:14:57;;;;;;;;;;;;;;;18.94;61.58;100557.44;7405054;19;998;-34
2023/01/31 12:17:26;;;;;;;;;;;;;;;18.88;61.94;100571.41;7405298;19;1433;-34
2023/01/31 12:20:03;;;;;;;;;;;;;;;18.84;62.16;100581.53;7405187;19;1776;-34
2023/01/31 12:22:35;;;;;;;;;;;;;;;18.86;62.01;100576.00;7403873;19;1861;-34
2023/01/31 12:25:14;;;;;;;;;;;;;;;18.88;61.48;100590.16;7404055;19;1677;-34
2023/01/31 12:27:52;;;;;;;;;;;;;;;18.89;61.59;100578.44;7404753;19;1654;-34
2023/01/31 12:30:26;;;;;;;;;;;;;;;18.90;61.90;100573.91;7401370;19;1501;-34
2023/01/31 12:33:02;;;;;;;;;;;;;;;18.95;61.68;100577.88;7404931;19;1642;-34
2023/01/31 12:35:50;;;;;;;;;;;;;;;18.92;61.29;100575.47;7405890;19;1634;-34
2023/01/31 12:38:24;;;;;;;;;;;;;;;18.93;61.21;100579.84;7404442;19;1256;-34
2023/01/31 12:41:02;;;;;;;;;;;;;;;18.91;61.63;100599.72;7403704;19;1008;-34
2023/01/31 12:43:44;;;;;;;;;;;;;;;18.93;61.44;100595.09;7403620;19;1861;-34
2023/01/31 12:46:17;;;;;;;;;;;;;;;18.92;61.07;100593.38;7405544;19;1928;-34
2023/01/31 12:48:57;;;;;;;;;;;;;;;18.93;61.30;100585.19;7402120;19;1632;-34
2023/01/31 12:51:33;;;;;;;;;;;;;;;18.94;61.10;100588.72;7403440;19;964;-34
2023/01/31 12:54:09;;;;;;;;;;;;;;;18.94;60.96;100604.78;7403050;19;1027;-34
2023/01/31 12:56:48;;;;;;;;;;;;;;;18.99;61.28;100594.53;7401976;19;1773;-34
2023/01/31 12:59:25;;;;;;;;;;;;;;;18.85;60.85;100615.38;7405148;19;1685;-34
2023/01/31 13:01:59;;;;;;;;;;;;;;;18.71;60.04;100607.69;7405808;19;1863;-34
2023/01/31 13:04:42;;;;;;;;;;;;;;;18.92;60.50;100602.28;7405830;19;1123;-34
2023/01/31 13:07:14;;;;;;;;;;;;;;;18.89;60.18;100615.94;7406107;19;1270;-36
2023/01/31 13:09:43;;;;;;;;;;;;;;;19.03;60.48;100612.00;7404370;19;1696;-34
2023/01/31 13:12:16;;;;;;;;;;;;;;;19.16;60.36;100609.91;7404462;19;1643;-35
2023/01/31 13:14:46;;;;;;;;;;;;;;;19.22;60.59;100614.72;7404133;19;1040;-34
2023/01/31 13:17:16;;;;;;;;;;;;;;;19.23;60.78;100615.56;7403745;19;1601;-34
2023/01/31 13:19:49;;;;;;;;;;;;;;;19.22;60.28;100622.75;7404129;19;2120;-34